createdAt,value
2023-01-17T00:02:10.738Z,95.71
2023-01-17T00:04:57.905Z,95.54
2023-01-17T00:07:44.295Z,95.47
2023-01-17T00:10:15.134Z,95.57
2023-01-17T00:12:47.802Z,95.63
2023-01-17T00:15:19.171Z,95.66
2023-01-17T00:17:47.515Z,95.78
2023-01-17T00:20:36.474Z,95.57
2023-01-17T00:23:25.543Z,95.27
2023-01-17T00:26:02.645Z,95.45
2023-01-17T00:28:32.513Z,95.60
2023-01-17T00:31:00.560Z,95.16
2023-01-17T00:33:28.980Z,95.30
2023-01-17T00:35:58.271Z,95.86
2023-01-17T00:38:28.092Z,96.20
2023-01-17T00:41:02.171Z,96.40
2023-01-17T00:43:50.059Z,96.47
2023-01-17T00:46:37.301Z,96.59
2023-01-17T00:49:24.501Z,96.53
2023-01-17T00:52:11.215Z,96.35
2023-01-17T00:54:58.219Z,96.52
2023-01-17T00:57:44.717Z,96.42
2023-01-17T01:00:33.489Z,96.36
2023-01-17T01:03:25.518Z,96.45
2023-01-17T01:06:12.502Z,96.58
2023-01-17T01:08:59.351Z,97.25
2023-01-17T01:11:46.518Z,97.72
2023-01-17T01:14:33.394Z,97.76
2023-01-17T01:17:20.193Z,98.52
2023-01-17T01:20:07.017Z,98.61
2023-01-17T01:22:54.008Z,98.94
2023-01-17T01:25:40.588Z,99.52
2023-01-17T01:28:30.622Z,99.97
2023-01-17T01:31:18.896Z,99.74
2023-01-17T01:33:47.694Z,99.23
2023-01-17T01:36:16.028Z,98.84
2023-01-17T01:38:45.153Z,98.96
2023-01-17T01:41:13.497Z,98.71
2023-01-17T01:43:46.340Z,98.42
2023-01-17T01:46:19.224Z,98.89
2023-01-17T01:48:51.939Z,99.12
2023-01-17T01:51:21.792Z,98.77
2023-01-17T01:53:53.885Z,98.42
2023-01-17T01:56:23.387Z,98.42
2023-01-17T01:58:53.229Z,98.17
2023-01-17T02:01:21.548Z,98.14
2023-01-17T02:03:50.774Z,98.44
2023-01-17T02:06:29.130Z,98.85
2023-01-17T02:09:00.545Z,98.77
2023-01-17T02:11:28.827Z,98.82
2023-01-17T02:13:57.078Z,98.27
2023-01-17T02:16:43.656Z,98.00
2023-01-17T02:19:34.605Z,97.84
2023-01-17T02:22:29.311Z,97.98
2023-01-17T02:25:04.308Z,98.02
2023-01-17T02:27:47.912Z,98.42
2023-01-17T02:30:34.569Z,98.55
2023-01-17T02:33:27.008Z,98.75
2023-01-17T02:36:10.518Z,98.74
2023-01-17T02:38:50.409Z,98.41
2023-01-17T02:41:22.451Z,98.49
2023-01-17T02:43:52.653Z,98.53
2023-01-17T02:46:21.179Z,98.28
2023-01-17T02:48:51.208Z,98.37
2023-01-17T02:51:35.981Z,98.47
2023-01-17T02:54:15.969Z,98.52
2023-01-17T02:56:56.504Z,98.21
2023-01-17T02:59:38.566Z,97.87
2023-01-17T03:02:20.828Z,97.58
2023-01-17T03:04:54.886Z,97.47
2023-01-17T03:07:26.559Z,97.22
2023-01-17T03:09:59.314Z,98.00
2023-01-17T03:12:27.688Z,98.23
2023-01-17T03:14:56.038Z,97.95
2023-01-17T03:17:28.292Z,97.56
2023-01-17T03:19:56.683Z,97.64
2023-01-17T03:22:25.186Z,98.07
2023-01-17T03:24:53.583Z,97.67
2023-01-17T03:27:21.873Z,97.42
2023-01-17T03:29:50.262Z,97.13
2023-01-17T03:32:18.538Z,96.70
2023-01-17T03:34:46.878Z,96.88
2023-01-17T03:37:15.532Z,96.77
2023-01-17T03:39:44.083Z,97.06
2023-01-17T03:42:12.887Z,96.92
2023-01-17T03:44:43.524Z,96.46
2023-01-17T03:47:12.229Z,95.95
2023-01-17T03:49:41.346Z,96.01
2023-01-17T03:52:09.745Z,95.91
2023-01-17T03:54:38.121Z,95.89
2023-01-17T03:57:07.990Z,95.70
2023-01-17T03:59:36.233Z,95.32
2023-01-17T04:02:04.605Z,95.18
2023-01-17T04:04:33.351Z,94.88
2023-01-17T04:07:01.590Z,94.87
2023-01-17T04:09:33.199Z,94.33
2023-01-17T04:12:02.164Z,94.10
2023-01-17T04:14:30.514Z,93.75
2023-01-17T04:16:59.550Z,93.78
2023-01-17T04:19:28.136Z,93.81
2023-01-17T04:21:56.418Z,93.45
2023-01-17T04:24:24.728Z,93.13
2023-01-17T04:26:53.005Z,92.79
2023-01-17T04:29:21.256Z,92.31
2023-01-17T04:31:49.679Z,92.22
2023-01-17T04:34:18.237Z,92.09
2023-01-17T04:36:46.954Z,91.89
2023-01-17T04:39:15.246Z,91.91
2023-01-17T04:41:43.648Z,91.86
2023-01-17T04:44:12.231Z,91.27
2023-01-17T04:46:40.813Z,90.97
2023-01-17T04:49:09.244Z,90.97
2023-01-17T04:51:37.521Z,90.64
2023-01-17T04:54:05.986Z,90.54
2023-01-17T04:56:34.273Z,90.77
2023-01-17T04:59:02.571Z,90.60
2023-01-17T05:01:31.015Z,90.22
2023-01-17T05:03:59.472Z,90.03
2023-01-17T05:06:27.926Z,90.05
2023-01-17T05:08:56.204Z,89.82
2023-01-17T05:11:24.565Z,89.91
2023-01-17T05:13:52.974Z,89.81
2023-01-17T05:16:21.233Z,89.40
2023-01-17T05:18:52.185Z,89.32
2023-01-17T05:21:21.807Z,89.30
2023-01-17T05:23:50.297Z,89.54
2023-01-17T05:26:18.472Z,89.11
2023-01-17T05:28:46.815Z,88.58
2023-01-17T05:31:15.167Z,88.47
2023-01-17T05:33:43.653Z,88.37
2023-01-17T05:36:12.089Z,88.42
2023-01-17T05:38:40.397Z,88.16
2023-01-17T05:41:08.666Z,87.93
2023-01-17T05:43:36.930Z,87.68
2023-01-17T05:46:05.685Z,87.57
2023-01-17T05:48:33.974Z,87.52
2023-01-17T05:51:02.296Z,87.07
2023-01-17T05:53:30.534Z,87.03
2023-01-17T05:55:58.807Z,86.82
2023-01-17T05:58:27.032Z,86.95
2023-01-17T06:00:56.031Z,86.74
2023-01-17T06:03:24.730Z,86.53
2023-01-17T06:05:53.488Z,86.32
2023-01-17T06:08:22.816Z,85.96
2023-01-17T06:10:51.592Z,85.90
2023-01-17T06:13:21.311Z,85.68
2023-01-17T06:15:50.063Z,85.77
2023-01-17T06:18:18.892Z,85.51
2023-01-17T06:20:53.674Z,85.32
2023-01-17T06:23:23.594Z,85.41
2023-01-17T06:25:52.552Z,85.48
2023-01-17T06:28:22.639Z,85.45
2023-01-17T06:30:50.977Z,85.23
2023-01-17T06:33:19.292Z,85.27
2023-01-17T06:35:52.869Z,85.15
2023-01-17T06:38:21.673Z,85.08
2023-01-17T06:40:50.166Z,84.94
2023-01-17T06:43:18.482Z,84.69
2023-01-17T06:45:46.705Z,84.69
2023-01-17T06:48:15.363Z,84.59
2023-01-17T06:50:43.928Z,84.18
2023-01-17T06:53:12.338Z,83.97
2023-01-17T06:55:41.903Z,83.83
2023-01-17T06:58:10.682Z,83.77
2023-01-17T07:00:40.876Z,83.63
2023-01-17T07:03:16.678Z,83.46
2023-01-17T07:05:45.055Z,83.47
2023-01-17T07:08:13.532Z,83.49
2023-01-17T07:10:43.720Z,83.56
2023-01-17T07:13:12.434Z,83.34
2023-01-17T07:15:41.051Z,83.09
2023-01-17T07:18:09.347Z,83.05
2023-01-17T07:20:38.103Z,82.95
2023-01-17T07:23:06.401Z,83.10
2023-01-17T07:25:34.656Z,82.85
2023-01-17T07:28:03.102Z,82.80
2023-01-17T07:30:31.423Z,82.68
2023-01-17T07:33:00.631Z,82.54
2023-01-17T07:35:29.137Z,82.47
2023-01-17T07:37:57.488Z,82.10
2023-01-17T07:40:26.579Z,81.92
2023-01-17T07:43:01.242Z,81.77
2023-01-17T07:45:29.562Z,81.54
2023-01-17T07:47:58.021Z,81.41
2023-01-17T07:50:26.424Z,81.47
2023-01-17T07:52:55.705Z,81.23
2023-01-17T07:55:24.161Z,80.92
2023-01-17T07:57:52.827Z,80.79
2023-01-17T08:00:22.620Z,80.54
2023-01-17T08:02:54.914Z,80.42
2023-01-17T08:05:23.830Z,80.19
2023-01-17T08:07:52.487Z,80.23
2023-01-17T08:10:21.936Z,80.18
2023-01-17T08:12:50.694Z,80.23
2023-01-17T08:15:19.313Z,80.12
2023-01-17T08:17:48.660Z,80.00
2023-01-17T08:20:17.268Z,79.93
2023-01-17T08:22:45.707Z,79.82
2023-01-17T08:25:14.403Z,79.84
2023-01-17T08:27:42.799Z,79.56
2023-01-17T08:30:12.923Z,79.67
2023-01-17T08:32:41.320Z,79.41
2023-01-17T08:35:10.421Z,79.51
2023-01-17T08:37:39.336Z,79.73
2023-01-17T08:40:10.430Z,79.50
2023-01-17T08:42:40.378Z,79.47
2023-01-17T08:45:10.716Z,79.35
2023-01-17T08:47:39.486Z,79.15
2023-01-17T08:50:09.404Z,78.87
2023-01-17T08:52:37.704Z,78.79
2023-01-17T08:55:09.374Z,78.66
2023-01-17T08:57:37.737Z,78.56
2023-01-17T09:00:09.230Z,78.56
2023-01-17T09:02:37.817Z,78.22
2023-01-17T09:05:08.021Z,78.21
2023-01-17T09:07:36.583Z,78.22
2023-01-17T09:10:06.193Z,78.26
2023-01-17T09:12:36.176Z,78.23
2023-01-17T09:15:06.544Z,78.28
2023-01-17T09:17:35.169Z,78.43
2023-01-17T09:20:04.209Z,78.19
2023-01-17T09:22:33.012Z,78.32
2023-01-17T09:25:12.774Z,78.29
2023-01-17T09:27:45.441Z,78.08
2023-01-17T09:30:15.666Z,77.78
2023-01-17T09:32:44.262Z,77.73
2023-01-17T09:35:12.976Z,77.86
2023-01-17T09:37:41.318Z,77.80
2023-01-17T09:40:18.013Z,77.72
2023-01-17T09:42:49.516Z,77.77
2023-01-17T09:45:20.241Z,77.48
2023-01-17T09:47:51.902Z,77.64
2023-01-17T09:50:29.247Z,78.04
2023-01-17T09:53:02.638Z,77.72
2023-01-17T09:55:39.625Z,77.55
2023-01-17T09:58:14.424Z,77.24
2023-01-17T10:00:53.225Z,77.14
2023-01-17T10:03:32.725Z,77.12
2023-01-17T10:06:13.669Z,77.19
2023-01-17T10:09:03.335Z,77.26
2023-01-17T10:11:46.582Z,77.04
2023-01-17T10:14:41.986Z,77.12
2023-01-17T10:17:21.349Z,76.67
2023-01-17T10:20:03.586Z,76.17
2023-01-17T10:22:45.685Z,76.12
2023-01-17T10:25:32.453Z,75.75
2023-01-17T10:28:09.720Z,75.72
2023-01-17T10:30:42.683Z,75.88
2023-01-17T10:33:17.602Z,75.99
2023-01-17T10:35:56.144Z,75.61
2023-01-17T10:38:30.349Z,75.32
2023-01-17T10:41:02.304Z,75.01
2023-01-17T10:43:43.464Z,74.74
2023-01-17T10:46:18.584Z,74.19
2023-01-17T10:48:51.586Z,74.04
2023-01-17T10:51:43.163Z,73.91
2023-01-17T10:54:28.897Z,73.61
2023-01-17T10:56:58.599Z,73.16
2023-01-17T10:59:32.912Z,73.20
2023-01-17T11:02:06.137Z,72.75
2023-01-17T11:04:37.236Z,72.13
2023-01-17T11:07:15.175Z,71.76
2023-01-17T11:09:45.258Z,71.70
2023-01-17T11:12:19.703Z,71.12
2023-01-17T11:15:06.232Z,71.20
2023-01-17T11:17:37.217Z,70.94
2023-01-17T11:20:19.278Z,71.05
2023-01-17T11:23:04.415Z,71.27
2023-01-17T11:25:34.277Z,70.85
2023-01-17T11:28:05.674Z,70.63
2023-01-17T11:30:34.371Z,70.80
2023-01-17T11:33:06.328Z,70.92
2023-01-17T11:35:36.897Z,71.29
2023-01-17T11:38:11.548Z,71.29
2023-01-17T11:40:41.936Z,70.74
2023-01-17T11:43:21.691Z,70.76
2023-01-17T11:46:06.050Z,70.45
2023-01-17T11:48:38.890Z,70.53
2023-01-17T11:51:16.287Z,70.56
2023-01-17T11:53:47.654Z,70.58
2023-01-17T11:56:26.619Z,70.59
2023-01-17T11:59:12.069Z,70.63
2023-01-17T12:01:52.878Z,70.73
2023-01-17T12:04:26.983Z,70.39
2023-01-17T12:07:21.369Z,69.87
2023-01-17T12:10:00.177Z,69.72
2023-01-17T12:13:02.459Z,69.56
2023-01-17T12:15:44.888Z,69.22
2023-01-17T12:18:30.682Z,68.84
2023-01-17T12:21:11.761Z,68.61
2023-01-17T12:24:00.169Z,68.49
2023-01-17T12:26:37.640Z,68.21
2023-01-17T12:29:36.550Z,67.99
2023-01-17T12:32:39.971Z,67.74
2023-01-17T12:35:12.477Z,67.56
2023-01-17T12:37:43.777Z,67.66
2023-01-17T12:40:22.794Z,67.82
2023-01-17T12:42:56.928Z,67.63
2023-01-17T12:45:31.525Z,67.14
2023-01-17T12:48:05.059Z,67.36
2023-01-17T12:50:40.021Z,66.98
2023-01-17T12:53:19.136Z,66.32
2023-01-17T12:55:56.629Z,66.16
2023-01-17T12:58:28.683Z,65.83
2023-01-17T13:01:02.378Z,65.65
2023-01-17T13:03:40.562Z,65.72
2023-01-17T13:06:19.990Z,65.87
2023-01-17T13:08:54.211Z,65.41
2023-01-17T13:11:28.058Z,64.59
2023-01-17T13:13:59.175Z,64.17
2023-01-17T13:16:33.498Z,64.15
2023-01-17T13:19:11.523Z,64.62
2023-01-17T13:21:40.981Z,64.27
2023-01-17T13:24:35.049Z,64.00
2023-01-17T13:27:23.329Z,64.28
2023-01-17T13:30:30.783Z,64.80
2023-01-17T13:33:28.446Z,65.15
2023-01-17T13:36:14.274Z,65.39
2023-01-17T13:38:57.841Z,65.46
2023-01-17T13:41:41.988Z,65.52
2023-01-17T13:44:21.399Z,65.85
2023-01-17T13:47:03.662Z,65.98
2023-01-17T13:49:47.752Z,66.20
2023-01-17T13:52:33.196Z,66.12
2023-01-17T13:55:04.060Z,66.50
2023-01-17T13:57:41.049Z,66.78
2023-01-17T14:00:57.722Z,66.97
2023-01-17T14:04:04.317Z,67.29
2023-01-17T14:06:40.375Z,68.01
2023-01-17T14:09:19.079Z,69.33
2023-01-17T14:11:58.136Z,70.06
2023-01-17T14:14:51.558Z,70.31
2023-01-17T14:17:55.191Z,70.67
2023-01-17T14:20:51.476Z,70.58
2023-01-17T14:23:46.994Z,70.13
2023-01-17T14:26:44.740Z,70.73
2023-01-17T14:29:50.106Z,70.64
2023-01-17T14:32:20.982Z,70.51
2023-01-17T14:34:51.610Z,70.50
2023-01-17T14:37:28.886Z,70.51
2023-01-17T14:39:57.545Z,70.72
2023-01-17T14:42:29.321Z,70.92
2023-01-17T14:45:01.675Z,70.75
2023-01-17T14:47:33.233Z,70.52
2023-01-17T14:50:18.781Z,70.38
2023-01-17T14:52:47.428Z,70.21
2023-01-17T14:55:18.829Z,70.31
2023-01-17T14:57:55.320Z,70.07
2023-01-17T15:00:28.442Z,69.57
2023-01-17T15:02:58.723Z,69.54
2023-01-17T15:05:29.001Z,69.31
2023-01-17T15:07:59.089Z,69.41
2023-01-17T15:10:30.310Z,69.34
2023-01-17T15:13:08.572Z,69.29
2023-01-17T15:15:38.998Z,69.42
2023-01-17T15:18:26.348Z,69.91
2023-01-17T15:20:58.815Z,69.89
2023-01-17T15:23:32.664Z,69.91
2023-01-17T15:26:02.857Z,70.12
2023-01-17T15:28:32.565Z,69.99
2023-01-17T15:31:13.059Z,70.00
2023-01-17T15:33:44.247Z,70.24
2023-01-17T15:36:22.803Z,70.05
2023-01-17T15:38:56.902Z,70.11
2023-01-17T15:41:26.619Z,70.26
2023-01-17T15:43:57.979Z,70.53
2023-01-17T15:46:32.394Z,70.55
2023-01-17T15:49:16.633Z,70.54
2023-01-17T15:51:52.322Z,70.62
2023-01-17T15:54:46.750Z,70.74
2023-01-17T15:57:25.958Z,71.01
2023-01-17T15:59:57.783Z,71.42
2023-01-17T16:02:31.792Z,71.52
2023-01-17T16:05:03.560Z,71.55
2023-01-17T16:07:34.426Z,71.53
2023-01-17T16:10:07.622Z,71.55
2023-01-17T16:12:36.106Z,71.72
2023-01-17T16:15:12.802Z,71.96
2023-01-17T16:17:45.147Z,72.05
2023-01-17T16:20:19.652Z,72.06
2023-01-17T16:22:49.139Z,72.09
2023-01-17T16:25:19.329Z,72.22
2023-01-17T16:27:47.799Z,72.30
2023-01-17T16:30:18.558Z,72.31
2023-01-17T16:32:48.763Z,72.17
2023-01-17T16:35:20.112Z,72.16
2023-01-17T16:37:50.431Z,72.32
2023-01-17T16:40:20.933Z,72.16
2023-01-17T16:42:49.725Z,72.18
2023-01-17T16:45:19.458Z,72.00
2023-01-17T16:47:48.801Z,75.65
2023-01-17T16:50:21.536Z,73.98
2023-01-17T16:52:49.117Z,72.45
2023-01-17T16:55:21.253Z,71.80
2023-01-17T16:57:50.562Z,71.61
2023-01-17T17:00:21.886Z,71.81
2023-01-17T17:02:51.725Z,71.65
2023-01-17T17:05:20.527Z,71.93
2023-01-17T17:07:51.646Z,71.99
2023-01-17T17:10:24.207Z,71.95
2023-01-17T17:12:52.566Z,71.71
2023-01-17T17:15:21.037Z,72.00
2023-01-17T17:17:50.252Z,72.20
2023-01-17T17:20:18.998Z,72.06
2023-01-17T17:22:51.154Z,72.19
2023-01-17T17:25:20.087Z,72.04
2023-01-17T17:27:48.377Z,72.12
2023-01-17T17:30:17.743Z,72.59
2023-01-17T17:32:47.182Z,72.68
2023-01-17T17:35:15.789Z,72.69
2023-01-17T17:37:44.349Z,72.72
2023-01-17T17:40:13.767Z,72.97
2023-01-17T17:42:43.080Z,74.18
2023-01-17T17:45:12.396Z,74.89
2023-01-17T17:47:40.785Z,74.60
2023-01-17T17:50:12.478Z,75.08
2023-01-17T17:52:43.468Z,76.08
2023-01-17T17:55:18.164Z,76.62
2023-01-17T17:57:46.487Z,76.41
2023-01-17T18:00:16.099Z,76.00
2023-01-17T18:02:44.497Z,75.18
2023-01-17T18:05:12.977Z,74.86
2023-01-17T18:07:41.335Z,75.04
2023-01-17T18:10:10.932Z,75.37
2023-01-17T18:12:39.295Z,75.56
2023-01-17T18:15:08.783Z,75.50
2023-01-17T18:17:37.064Z,74.90
2023-01-17T18:20:07.802Z,74.92
2023-01-17T18:22:37.014Z,75.17
2023-01-17T18:25:07.443Z,75.05
2023-01-17T18:27:35.828Z,74.62
2023-01-17T18:30:05.806Z,74.51
2023-01-17T18:32:34.186Z,74.45
2023-01-17T18:35:03.234Z,75.06
2023-01-17T18:37:32.459Z,75.06
2023-01-17T18:40:00.924Z,74.95
2023-01-17T18:42:30.429Z,75.00
2023-01-17T18:45:00.037Z,74.95
2023-01-17T18:47:29.898Z,74.89
2023-01-17T18:49:58.184Z,75.41
2023-01-17T18:52:26.589Z,76.19
2023-01-17T18:54:54.950Z,76.45
2023-01-17T18:57:23.736Z,77.11
2023-01-17T18:59:52.037Z,77.61
2023-01-17T19:02:20.600Z,77.74
2023-01-17T19:04:49.148Z,78.03
2023-01-17T19:07:17.502Z,78.52
2023-01-17T19:09:46.624Z,79.02
2023-01-17T19:12:15.250Z,79.64
2023-01-17T19:14:43.653Z,80.12
2023-01-17T19:17:12.069Z,80.24
2023-01-17T19:19:41.301Z,80.80
2023-01-17T19:22:10.051Z,80.74
2023-01-17T19:24:38.434Z,80.61
2023-01-17T19:27:06.798Z,81.41
2023-01-17T19:29:35.142Z,81.20
2023-01-17T19:32:03.500Z,81.92
2023-01-17T19:34:32.529Z,82.57
2023-01-17T19:37:00.886Z,82.18
2023-01-17T19:39:30.456Z,82.25
2023-01-17T19:41:59.276Z,82.70
2023-01-17T19:44:27.978Z,82.53
2023-01-17T19:46:56.487Z,83.23
2023-01-17T19:49:24.804Z,83.98
2023-01-17T19:51:53.500Z,84.20
2023-01-17T19:54:22.536Z,83.67
2023-01-17T19:56:51.230Z,83.60
2023-01-17T19:59:19.621Z,83.96
2023-01-17T20:01:48.611Z,83.63
2023-01-17T20:04:17.817Z,83.96
2023-01-17T20:06:46.275Z,84.30
2023-01-17T20:09:14.560Z,84.09
2023-01-17T20:11:44.689Z,83.64
2023-01-17T20:14:15.766Z,83.51
2023-01-17T20:16:46.887Z,83.01
2023-01-17T20:19:15.558Z,83.43
2023-01-17T20:21:43.833Z,83.89
2023-01-17T20:24:15.577Z,83.83
2023-01-17T20:26:44.372Z,84.53
2023-01-17T20:29:14.885Z,84.72
2023-01-17T20:31:44.742Z,85.37
2023-01-17T20:34:19.222Z,86.37
2023-01-17T20:36:48.022Z,86.47
2023-01-17T20:39:17.263Z,86.57
2023-01-17T20:41:48.630Z,86.91
2023-01-17T20:44:18.963Z,87.08
2023-01-17T20:46:47.552Z,86.99
2023-01-17T20:49:18.571Z,87.46
2023-01-17T20:51:47.606Z,87.43
2023-01-17T20:54:17.790Z,87.70
2023-01-17T20:56:47.352Z,87.03
2023-01-17T20:59:18.392Z,86.76
2023-01-17T21:01:48.489Z,86.64
2023-01-17T21:04:24.116Z,86.81
2023-01-17T21:06:53.898Z,87.29
2023-01-17T21:09:23.697Z,86.67
2023-01-17T21:11:53.866Z,87.07
2023-01-17T21:14:22.460Z,87.24
2023-01-17T21:16:51.428Z,87.31
2023-01-17T21:19:20.607Z,87.37
2023-01-17T21:21:50.419Z,87.36
2023-01-17T21:24:19.500Z,87.75
2023-01-17T21:26:50.775Z,87.29
2023-01-17T21:29:19.499Z,87.80
2023-01-17T21:31:48.274Z,87.81
2023-01-17T21:34:16.696Z,87.99
2023-01-17T21:36:45.178Z,88.10
2023-01-17T21:39:16.026Z,88.08
2023-01-17T21:41:47.137Z,88.66
2023-01-17T21:44:19.020Z,89.07
2023-01-17T21:46:48.793Z,88.47
2023-01-17T21:49:17.179Z,87.78
2023-01-17T21:52:03.785Z,87.59
2023-01-17T21:54:50.268Z,87.56
2023-01-17T21:57:38.599Z,87.58
2023-01-17T22:00:11.276Z,87.16
2023-01-17T22:02:44.543Z,86.93
2023-01-17T22:05:14.149Z,86.65
2023-01-17T22:08:04.474Z,86.35
2023-01-17T22:10:43.726Z,86.52
2023-01-17T22:13:13.993Z,86.96
2023-01-17T22:15:43.130Z,87.57
2023-01-17T22:18:12.372Z,87.70
2023-01-17T22:20:41.049Z,87.52
2023-01-17T22:23:11.097Z,88.10
2023-01-17T22:25:39.420Z,88.32
2023-01-17T22:28:08.541Z,88.59
2023-01-17T22:30:36.996Z,89.10
2023-01-17T22:33:05.514Z,88.86
2023-01-17T22:35:33.989Z,88.68
2023-01-17T22:38:02.473Z,88.55
2023-01-17T22:40:32.081Z,88.80
2023-01-17T22:43:00.461Z,88.98
2023-01-17T22:45:29.009Z,88.82
2023-01-17T22:47:57.311Z,87.97
2023-01-17T22:50:25.639Z,87.55
2023-01-17T22:52:54.082Z,87.42
2023-01-17T22:55:22.392Z,87.08
2023-01-17T22:57:50.875Z,87.28
2023-01-17T23:00:20.626Z,87.05
2023-01-17T23:02:48.885Z,86.64
2023-01-17T23:05:17.739Z,87.50
2023-01-17T23:07:49.758Z,87.13
2023-01-17T23:10:33.074Z,87.45
2023-01-17T23:13:02.297Z,88.33
2023-01-17T23:15:48.215Z,88.70
2023-01-17T23:18:34.682Z,89.25
2023-01-17T23:21:03.088Z,89.49
2023-01-17T23:23:32.870Z,89.57
2023-01-17T23:26:01.531Z,89.60
2023-01-17T23:28:29.864Z,89.00
2023-01-17T23:31:02.805Z,88.75
2023-01-17T23:33:31.168Z,88.82
2023-01-17T23:35:59.389Z,89.27
2023-01-17T23:38:32.937Z,89.13
2023-01-17T23:41:21.872Z,88.90
2023-01-17T23:43:55.112Z,89.61
2023-01-17T23:46:25.494Z,90.00
2023-01-17T23:48:54.357Z,89.43
2023-01-17T23:51:22.835Z,88.96
2023-01-17T23:53:56.526Z,88.83
2023-01-17T23:56:25.095Z,88.22
2023-01-17T23:58:54.100Z,88.58
